sensor_id;sensor_type;location;lat;lon;timestamp;P1;durP1;ratioP1;P2;durP2;ratioP2
31206;SDS011;17834;52.992;8.856;2022-11-09T00:01:17;4.13;;;1.88;;
31206;SDS011;17834;52.992;8.856;2022-11-09T00:03:44;5.90;;;1.70;;
31206;SDS011;17834;52.992;8.856;2022-11-09T00:06:10;2.58;;;1.58;;
31206;SDS011;17834;52.992;8.856;2022-11-09T00:08:36;3.08;;;1.58;;
31206;SDS011;17834;52.992;8.856;2022-11-09T00:11:03;3.33;;;1.48;;
31206;SDS011;17834;52.992;8.856;2022-11-09T00:13:30;3.40;;;1.48;;
31206;SDS011;17834;52.992;8.856;2022-11-09T00:15:59;2.50;;;1.52;;
31206;SDS011;17834;52.992;8.856;2022-11-09T00:18:26;2.75;;;1.40;;
31206;SDS011;17834;52.992;8.856;2022-11-09T00:20:52;2.80;;;1.65;;
31206;SDS011;17834;52.992;8.856;2022-11-09T00:23:18;3.03;;;1.63;;
31206;SDS011;17834;52.992;8.856;2022-11-09T00:25:44;4.65;;;1.90;;
31206;SDS011;17834;52.992;8.856;2022-11-09T00:28:11;2.45;;;1.45;;
31206;SDS011;17834;52.992;8.856;2022-11-09T00:30:37;3.72;;;1.77;;
31206;SDS011;17834;52.992;8.856;2022-11-09T00:33:04;4.82;;;2.10;;
31206;SDS011;17834;52.992;8.856;2022-11-09T00:35:30;5.40;;;1.98;;
31206;SDS011;17834;52.992;8.856;2022-11-09T00:37:56;3.08;;;1.83;;
31206;SDS011;17834;52.992;8.856;2022-11-09T00:40:22;3.97;;;1.73;;
31206;SDS011;17834;52.992;8.856;2022-11-09T00:42:48;2.75;;;1.50;;
31206;SDS011;17834;52.992;8.856;2022-11-09T00:45:14;6.00;;;2.60;;
31206;SDS011;17834;52.992;8.856;2022-11-09T00:47:40;3.47;;;1.83;;
31206;SDS011;17834;52.992;8.856;2022-11-09T00:50:06;5.00;;;1.65;;
31206;SDS011;17834;52.992;8.856;2022-11-09T00:52:32;4.63;;;2.15;;
31206;SDS011;17834;52.992;8.856;2022-11-09T00:54:58;3.85;;;1.83;;
31206;SDS011;17834;52.992;8.856;2022-11-09T00:57:25;3.90;;;2.08;;
31206;SDS011;17834;52.992;8.856;2022-11-09T00:59:51;4.18;;;1.90;;
31206;SDS011;17834;52.992;8.856;2022-11-09T01:02:18;4.38;;;1.90;;
31206;SDS011;17834;52.992;8.856;2022-11-09T01:04:44;5.32;;;2.10;;
31206;SDS011;17834;52.992;8.856;2022-11-09T01:07:10;4.45;;;2.10;;
31206;SDS011;17834;52.992;8.856;2022-11-09T01:09:36;5.00;;;1.80;;
31206;SDS011;17834;52.992;8.856;2022-11-09T01:12:02;4.18;;;1.83;;
31206;SDS011;17834;52.992;8.856;2022-11-09T01:14:28;3.35;;;1.95;;
31206;SDS011;17834;52.992;8.856;2022-11-09T01:16:54;3.50;;;1.80;;
31206;SDS011;17834;52.992;8.856;2022-11-09T01:19:20;3.28;;;1.85;;
31206;SDS011;17834;52.992;8.856;2022-11-09T01:21:46;2.50;;;1.60;;
31206;SDS011;17834;52.992;8.856;2022-11-09T01:24:12;2.97;;;1.80;;
31206;SDS011;17834;52.992;8.856;2022-11-09T01:26:38;4.10;;;2.03;;
31206;SDS011;17834;52.992;8.856;2022-11-09T01:29:04;3.78;;;2.05;;
31206;SDS011;17834;52.992;8.856;2022-11-09T01:31:30;3.17;;;1.80;;
31206;SDS011;17834;52.992;8.856;2022-11-09T01:33:57;4.10;;;1.98;;
31206;SDS011;17834;52.992;8.856;2022-11-09T01:36:23;3.42;;;1.83;;
31206;SDS011;17834;52.992;8.856;2022-11-09T01:38:49;3.97;;;1.83;;
31206;SDS011;17834;52.992;8.856;2022-11-09T01:41:20;7.70;;;1.95;;
31206;SDS011;17834;52.992;8.856;2022-11-09T01:46:33;5.25;;;1.70;;
31206;SDS011;17834;52.992;8.856;2022-11-09T01:49:02;4.72;;;2.28;;
31206;SDS011;17834;52.992;8.856;2022-11-09T01:51:36;3.50;;;2.00;;
31206;SDS011;17834;52.992;8.856;2022-11-09T01:54:05;5.55;;;1.88;;
31206;SDS011;17834;52.992;8.856;2022-11-09T01:56:31;3.70;;;1.98;;
31206;SDS011;17834;52.992;8.856;2022-11-09T01:58:59;3.25;;;1.80;;
31206;SDS011;17834;52.992;8.856;2022-11-09T02:01:25;5.32;;;1.98;;
31206;SDS011;17834;52.992;8.856;2022-11-09T02:03:56;4.60;;;2.20;;
31206;SDS011;17834;52.992;8.856;2022-11-09T02:06:24;8.35;;;1.85;;
31206;SDS011;17834;52.992;8.856;2022-11-09T02:08:52;3.00;;;1.50;;
31206;SDS011;17834;52.992;8.856;2022-11-09T02:11:19;3.03;;;1.73;;
31206;SDS011;17834;52.992;8.856;2022-11-09T02:13:47;4.68;;;2.03;;
31206;SDS011;17834;52.992;8.856;2022-11-09T02:16:14;6.45;;;1.90;;
31206;SDS011;17834;52.992;8.856;2022-11-09T02:18:43;2.72;;;1.70;;
31206;SDS011;17834;52.992;8.856;2022-11-09T02:21:13;2.88;;;1.67;;
31206;SDS011;17834;52.992;8.856;2022-11-09T02:23:39;4.38;;;2.10;;
31206;SDS011;17834;52.992;8.856;2022-11-09T02:26:06;3.13;;;1.73;;
31206;SDS011;17834;52.992;8.856;2022-11-09T02:28:34;2.83;;;1.35;;
31206;SDS011;17834;52.992;8.856;2022-11-09T02:31:01;6.05;;;1.70;;
31206;SDS011;17834;52.992;8.856;2022-11-09T02:33:27;3.83;;;1.70;;
31206;SDS011;17834;52.992;8.856;2022-11-09T02:35:53;4.53;;;1.98;;
31206;SDS011;17834;52.992;8.856;2022-11-09T02:38:19;2.05;;;1.40;;
31206;SDS011;17834;52.992;8.856;2022-11-09T02:40:46;3.03;;;1.98;;
31206;SDS011;17834;52.992;8.856;2022-11-09T02:43:12;2.80;;;1.48;;
31206;SDS011;17834;52.992;8.856;2022-11-09T02:45:39;4.80;;;2.22;;
31206;SDS011;17834;52.992;8.856;2022-11-09T02:48:05;4.90;;;1.65;;
31206;SDS011;17834;52.992;8.856;2022-11-09T02:50:31;5.65;;;2.53;;
31206;SDS011;17834;52.992;8.856;2022-11-09T02:52:57;5.50;;;1.95;;
31206;SDS011;17834;52.992;8.856;2022-11-09T02:55:23;2.38;;;1.75;;
31206;SDS011;17834;52.992;8.856;2022-11-09T02:57:49;2.38;;;1.52;;
31206;SDS011;17834;52.992;8.856;2022-11-09T03:00:15;3.45;;;1.75;;
31206;SDS011;17834;52.992;8.856;2022-11-09T03:02:41;5.82;;;1.85;;
31206;SDS011;17834;52.992;8.856;2022-11-09T03:05:07;4.43;;;1.60;;
31206;SDS011;17834;52.992;8.856;2022-11-09T03:07:34;3.55;;;1.50;;
31206;SDS011;17834;52.992;8.856;2022-11-09T03:09:59;6.88;;;1.90;;
31206;SDS011;17834;52.992;8.856;2022-11-09T03:12:25;4.32;;;1.80;;
31206;SDS011;17834;52.992;8.856;2022-11-09T03:14:55;3.75;;;2.10;;
31206;SDS011;17834;52.992;8.856;2022-11-09T03:17:21;3.53;;;1.65;;
31206;SDS011;17834;52.992;8.856;2022-11-09T03:19:47;3.47;;;1.75;;
31206;SDS011;17834;52.992;8.856;2022-11-09T03:22:13;4.82;;;1.60;;
31206;SDS011;17834;52.992;8.856;2022-11-09T03:24:39;5.43;;;1.90;;
31206;SDS011;17834;52.992;8.856;2022-11-09T03:27:05;4.38;;;1.70;;
31206;SDS011;17834;52.992;8.856;2022-11-09T03:29:31;6.70;;;2.40;;
31206;SDS011;17834;52.992;8.856;2022-11-09T03:31:58;5.05;;;2.05;;
31206;SDS011;17834;52.992;8.856;2022-11-09T03:34:24;2.70;;;1.55;;
31206;SDS011;17834;52.992;8.856;2022-11-09T03:36:50;3.45;;;1.45;;
31206;SDS011;17834;52.992;8.856;2022-11-09T03:39:16;2.63;;;1.65;;
31206;SDS011;17834;52.992;8.856;2022-11-09T03:41:42;5.90;;;1.88;;
31206;SDS011;17834;52.992;8.856;2022-11-09T03:44:08;3.88;;;2.00;;
31206;SDS011;17834;52.992;8.856;2022-11-09T03:46:34;4.88;;;1.90;;
31206;SDS011;17834;52.992;8.856;2022-11-09T03:49:00;2.33;;;1.60;;
31206;SDS011;17834;52.992;8.856;2022-11-09T03:51:26;3.72;;;1.23;;
31206;SDS011;17834;52.992;8.856;2022-11-09T03:53:52;2.53;;;1.80;;
31206;SDS011;17834;52.992;8.856;2022-11-09T03:56:18;5.18;;;1.80;;
31206;SDS011;17834;52.992;8.856;2022-11-09T03:58:44;6.47;;;1.60;;
31206;SDS011;17834;52.992;8.856;2022-11-09T04:01:10;5.75;;;1.70;;
31206;SDS011;17834;52.992;8.856;2022-11-09T04:03:36;6.20;;;1.70;;
31206;SDS011;17834;52.992;8.856;2022-11-09T04:06:03;4.10;;;1.38;;
31206;SDS011;17834;52.992;8.856;2022-11-09T04:08:29;2.53;;;1.48;;
31206;SDS011;17834;52.992;8.856;2022-11-09T04:10:55;4.78;;;1.30;;
31206;SDS011;17834;52.992;8.856;2022-11-09T04:13:21;6.38;;;1.58;;
31206;SDS011;17834;52.992;8.856;2022-11-09T04:15:47;4.38;;;1.38;;
31206;SDS011;17834;52.992;8.856;2022-11-09T04:18:14;6.97;;;1.80;;
31206;SDS011;17834;52.992;8.856;2022-11-09T04:20:40;3.10;;;1.70;;
31206;SDS011;17834;52.992;8.856;2022-11-09T04:23:06;4.53;;;1.83;;
31206;SDS011;17834;52.992;8.856;2022-11-09T04:25:35;2.70;;;1.52;;
31206;SDS011;17834;52.992;8.856;2022-11-09T04:28:02;3.55;;;1.27;;
31206;SDS011;17834;52.992;8.856;2022-11-09T04:30:29;5.03;;;1.73;;
31206;SDS011;17834;52.992;8.856;2022-11-09T04:32:59;4.05;;;1.65;;
31206;SDS011;17834;52.992;8.856;2022-11-09T04:35:25;2.95;;;1.30;;
31206;SDS011;17834;52.992;8.856;2022-11-09T04:37:58;4.20;;;1.30;;
31206;SDS011;17834;52.992;8.856;2022-11-09T04:40:25;7.18;;;1.20;;
31206;SDS011;17834;52.992;8.856;2022-11-09T04:42:51;4.35;;;1.52;;
31206;SDS011;17834;52.992;8.856;2022-11-09T04:45:18;5.03;;;1.40;;
31206;SDS011;17834;52.992;8.856;2022-11-09T04:47:44;4.30;;;1.45;;
31206;SDS011;17834;52.992;8.856;2022-11-09T04:50:10;2.50;;;1.48;;
31206;SDS011;17834;52.992;8.856;2022-11-09T04:52:36;2.63;;;1.67;;
31206;SDS011;17834;52.992;8.856;2022-11-09T04:55:03;3.13;;;1.48;;
31206;SDS011;17834;52.992;8.856;2022-11-09T04:57:29;2.78;;;1.60;;
31206;SDS011;17834;52.992;8.856;2022-11-09T04:59:55;2.25;;;1.15;;
31206;SDS011;17834;52.992;8.856;2022-11-09T05:02:21;2.05;;;1.15;;
31206;SDS011;17834;52.992;8.856;2022-11-09T05:04:47;5.68;;;1.40;;
31206;SDS011;17834;52.992;8.856;2022-11-09T05:07:13;4.32;;;2.15;;
31206;SDS011;17834;52.992;8.856;2022-11-09T05:09:39;4.20;;;1.70;;
31206;SDS011;17834;52.992;8.856;2022-11-09T05:12:05;2.78;;;1.50;;
31206;SDS011;17834;52.992;8.856;2022-11-09T05:14:31;2.90;;;1.20;;
31206;SDS011;17834;52.992;8.856;2022-11-09T05:16:57;4.22;;;1.70;;
31206;SDS011;17834;52.992;8.856;2022-11-09T05:19:23;4.55;;;1.23;;
31206;SDS011;17834;52.992;8.856;2022-11-09T05:21:49;2.47;;;1.38;;
31206;SDS011;17834;52.992;8.856;2022-11-09T05:24:15;3.67;;;1.23;;
31206;SDS011;17834;52.992;8.856;2022-11-09T05:26:41;3.35;;;1.23;;
31206;SDS011;17834;52.992;8.856;2022-11-09T05:29:10;2.78;;;1.20;;
31206;SDS011;17834;52.992;8.856;2022-11-09T05:31:37;3.40;;;1.45;;
31206;SDS011;17834;52.992;8.856;2022-11-09T05:34:04;3.70;;;1.23;;
31206;SDS011;17834;52.992;8.856;2022-11-09T05:36:30;2.63;;;1.27;;
31206;SDS011;17834;52.992;8.856;2022-11-09T05:38:57;6.82;;;3.60;;
31206;SDS011;17834;52.992;8.856;2022-11-09T05:41:24;4.95;;;2.28;;
31206;SDS011;17834;52.992;8.856;2022-11-09T05:43:50;2.42;;;1.48;;
31206;SDS011;17834;52.992;8.856;2022-11-09T05:46:16;2.83;;;1.33;;
31206;SDS011;17834;52.992;8.856;2022-11-09T05:48:43;2.75;;;1.30;;
31206;SDS011;17834;52.992;8.856;2022-11-09T05:51:10;2.83;;;1.50;;
31206;SDS011;17834;52.992;8.856;2022-11-09T05:53:36;4.40;;;1.63;;
31206;SDS011;17834;52.992;8.856;2022-11-09T05:56:04;3.92;;;1.70;;
31206;SDS011;17834;52.992;8.856;2022-11-09T05:58:30;3.80;;;1.60;;
31206;SDS011;17834;52.992;8.856;2022-11-09T06:01:00;2.53;;;1.15;;
31206;SDS011;17834;52.992;8.856;2022-11-09T06:03:26;3.33;;;1.38;;
31206;SDS011;17834;52.992;8.856;2022-11-09T06:05:52;5.30;;;1.45;;
31206;SDS011;17834;52.992;8.856;2022-11-09T06:08:18;3.47;;;1.60;;
31206;SDS011;17834;52.992;8.856;2022-11-09T06:10:44;6.60;;;2.05;;
31206;SDS011;17834;52.992;8.856;2022-11-09T06:13:10;3.35;;;1.70;;
31206;SDS011;17834;52.992;8.856;2022-11-09T06:15:37;2.83;;;1.23;;
31206;SDS011;17834;52.992;8.856;2022-11-09T06:18:03;2.00;;;1.30;;
31206;SDS011;17834;52.992;8.856;2022-11-09T06:20:29;7.80;;;2.03;;
31206;SDS011;17834;52.992;8.856;2022-11-09T06:22:57;2.25;;;1.50;;
31206;SDS011;17834;52.992;8.856;2022-11-09T06:25:24;3.05;;;1.35;;
31206;SDS011;17834;52.992;8.856;2022-11-09T06:27:52;4.55;;;1.80;;
31206;SDS011;17834;52.992;8.856;2022-11-09T06:30:18;5.53;;;2.13;;
31206;SDS011;17834;52.992;8.856;2022-11-09T06:32:44;3.63;;;1.60;;
31206;SDS011;17834;52.992;8.856;2022-11-09T06:35:10;3.88;;;1.50;;
31206;SDS011;17834;52.992;8.856;2022-11-09T06:37:36;3.35;;;1.73;;
31206;SDS011;17834;52.992;8.856;2022-11-09T06:40:02;2.80;;;1.48;;
31206;SDS011;17834;52.992;8.856;2022-11-09T06:42:29;4.32;;;1.23;;
31206;SDS011;17834;52.992;8.856;2022-11-09T06:44:55;3.08;;;1.17;;
31206;SDS011;17834;52.992;8.856;2022-11-09T06:47:21;4.18;;;1.33;;
31206;SDS011;17834;52.992;8.856;2022-11-09T06:49:47;5.78;;;1.45;;
31206;SDS011;17834;52.992;8.856;2022-11-09T06:52:13;3.17;;;1.27;;
31206;SDS011;17834;52.992;8.856;2022-11-09T06:54:39;3.70;;;1.50;;
31206;SDS011;17834;52.992;8.856;2022-11-09T06:57:05;5.57;;;1.45;;
31206;SDS011;17834;52.992;8.856;2022-11-09T06:59:31;1.88;;;1.17;;
31206;SDS011;17834;52.992;8.856;2022-11-09T07:01:57;3.50;;;1.30;;
31206;SDS011;17834;52.992;8.856;2022-11-09T07:04:23;5.70;;;1.10;;
31206;SDS011;17834;52.992;8.856;2022-11-09T07:06:49;8.70;;;1.52;;
31206;SDS011;17834;52.992;8.856;2022-11-09T07:09:15;10.00;;;2.97;;
31206;SDS011;17834;52.992;8.856;2022-11-09T07:11:41;9.13;;;3.67;;
31206;SDS011;17834;52.992;8.856;2022-11-09T07:14:07;7.63;;;3.33;;
31206;SDS011;17834;52.992;8.856;2022-11-09T07:16:33;10.73;;;2.80;;
31206;SDS011;17834;52.992;8.856;2022-11-09T07:18:59;7.70;;;3.05;;
31206;SDS011;17834;52.992;8.856;2022-11-09T07:21:25;10.95;;;3.45;;
31206;SDS011;17834;52.992;8.856;2022-11-09T07:23:51;7.07;;;2.65;;
31206;SDS011;17834;52.992;8.856;2022-11-09T07:26:17;2.88;;;1.60;;
31206;SDS011;17834;52.992;8.856;2022-11-09T07:28:43;5.10;;;1.40;;
31206;SDS011;17834;52.992;8.856;2022-11-09T07:31:09;7.00;;;2.20;;
31206;SDS011;17834;52.992;8.856;2022-11-09T07:33:35;5.22;;;1.10;;
31206;SDS011;17834;52.992;8.856;2022-11-09T07:36:02;5.93;;;1.33;;
31206;SDS011;17834;52.992;8.856;2022-11-09T07:38:29;3.67;;;1.27;;
31206;SDS011;17834;52.992;8.856;2022-11-09T07:40:58;6.93;;;1.75;;
31206;SDS011;17834;52.992;8.856;2022-11-09T07:43:24;4.22;;;1.40;;
31206;SDS011;17834;52.992;8.856;2022-11-09T07:45:50;4.00;;;0.95;;
31206;SDS011;17834;52.992;8.856;2022-11-09T07:48:16;3.25;;;1.38;;
31206;SDS011;17834;52.992;8.856;2022-11-09T07:50:42;5.38;;;1.75;;
31206;SDS011;17834;52.992;8.856;2022-11-09T07:53:09;5.70;;;1.58;;
31206;SDS011;17834;52.992;8.856;2022-11-09T07:55:36;4.10;;;1.20;;
31206;SDS011;17834;52.992;8.856;2022-11-09T07:58:03;7.53;;;1.50;;
31206;SDS011;17834;52.992;8.856;2022-11-09T08:00:30;10.98;;;1.40;;
31206;SDS011;17834;52.992;8.856;2022-11-09T08:02:57;3.92;;;1.35;;
31206;SDS011;17834;52.992;8.856;2022-11-09T08:05:23;5.82;;;1.42;;
31206;SDS011;17834;52.992;8.856;2022-11-09T08:07:53;6.05;;;1.23;;
31206;SDS011;17834;52.992;8.856;2022-11-09T08:10:19;4.25;;;1.60;;
31206;SDS011;17834;52.992;8.856;2022-11-09T08:12:51;9.32;;;1.25;;
31206;SDS011;17834;52.992;8.856;2022-11-09T08:15:17;7.00;;;1.30;;
31206;SDS011;17834;52.992;8.856;2022-11-09T08:17:43;4.22;;;1.20;;
31206;SDS011;17834;52.992;8.856;2022-11-09T08:20:09;2.80;;;1.08;;
31206;SDS011;17834;52.992;8.856;2022-11-09T08:22:39;3.55;;;1.48;;
31206;SDS011;17834;52.992;8.856;2022-11-09T08:25:05;3.45;;;1.00;;
31206;SDS011;17834;52.992;8.856;2022-11-09T08:27:31;4.13;;;1.00;;
31206;SDS011;17834;52.992;8.856;2022-11-09T08:30:04;5.95;;;1.30;;
31206;SDS011;17834;52.992;8.856;2022-11-09T08:32:30;7.80;;;1.10;;
31206;SDS011;17834;52.992;8.856;2022-11-09T08:34:56;4.15;;;0.90;;
31206;SDS011;17834;52.992;8.856;2022-11-09T08:37:22;7.45;;;1.63;;
31206;SDS011;17834;52.992;8.856;2022-11-09T08:39:48;4.32;;;1.48;;
31206;SDS011;17834;52.992;8.856;2022-11-09T08:42:14;4.60;;;1.23;;
31206;SDS011;17834;52.992;8.856;2022-11-09T08:44:40;9.13;;;1.50;;
31206;SDS011;17834;52.992;8.856;2022-11-09T08:47:06;10.75;;;3.08;;
31206;SDS011;17834;52.992;8.856;2022-11-09T08:49:32;5.72;;;2.38;;
31206;SDS011;17834;52.992;8.856;2022-11-09T08:51:59;7.03;;;2.55;;
31206;SDS011;17834;52.992;8.856;2022-11-09T08:54:25;12.05;;;4.03;;
31206;SDS011;17834;52.992;8.856;2022-11-09T08:56:54;4.07;;;1.65;;
31206;SDS011;17834;52.992;8.856;2022-11-09T08:59:21;6.50;;;1.55;;
31206;SDS011;17834;52.992;8.856;2022-11-09T09:01:47;11.30;;;1.27;;
31206;SDS011;17834;52.992;8.856;2022-11-09T09:04:14;9.05;;;1.65;;
31206;SDS011;17834;52.992;8.856;2022-11-09T09:06:40;5.63;;;1.20;;
31206;SDS011;17834;52.992;8.856;2022-11-09T09:09:06;10.75;;;1.52;;
31206;SDS011;17834;52.992;8.856;2022-11-09T09:11:32;6.43;;;1.05;;
31206;SDS011;17834;52.992;8.856;2022-11-09T09:13:58;10.15;;;1.58;;
31206;SDS011;17834;52.992;8.856;2022-11-09T09:16:24;5.30;;;1.20;;
31206;SDS011;17834;52.992;8.856;2022-11-09T09:18:50;3.78;;;1.75;;
31206;SDS011;17834;52.992;8.856;2022-11-09T09:21:16;6.45;;;0.98;;
31206;SDS011;17834;52.992;8.856;2022-11-09T09:23:42;4.47;;;1.20;;
31206;SDS011;17834;52.992;8.856;2022-11-09T09:26:08;7.28;;;1.40;;
31206;SDS011;17834;52.992;8.856;2022-11-09T09:28:34;6.50;;;1.30;;
31206;SDS011;17834;52.992;8.856;2022-11-09T09:31:00;3.30;;;1.20;;
31206;SDS011;17834;52.992;8.856;2022-11-09T09:33:27;9.07;;;2.08;;
31206;SDS011;17834;52.992;8.856;2022-11-09T09:35:56;9.30;;;1.85;;
31206;SDS011;17834;52.992;8.856;2022-11-09T09:38:23;6.55;;;1.25;;
31206;SDS011;17834;52.992;8.856;2022-11-09T09:40:56;4.05;;;1.00;;
31206;SDS011;17834;52.992;8.856;2022-11-09T09:43:45;8.07;;;1.30;;
31206;SDS011;17834;52.992;8.856;2022-11-09T09:46:16;4.15;;;1.20;;
31206;SDS011;17834;52.992;8.856;2022-11-09T09:49:44;6.18;;;1.42;;
31206;SDS011;17834;52.992;8.856;2022-11-09T09:54:14;5.63;;;0.93;;
31206;SDS011;17834;52.992;8.856;2022-11-09T09:56:42;9.85;;;1.17;;
31206;SDS011;17834;52.992;8.856;2022-11-09T10:02:15;6.20;;;1.27;;
31206;SDS011;17834;52.992;8.856;2022-11-09T10:04:43;4.07;;;1.10;;
31206;SDS011;17834;52.992;8.856;2022-11-09T10:07:13;4.43;;;0.95;;
31206;SDS011;17834;52.992;8.856;2022-11-09T10:09:52;2.70;;;0.88;;
31206;SDS011;17834;52.992;8.856;2022-11-09T10:12:23;7.63;;;1.00;;
31206;SDS011;17834;52.992;8.856;2022-11-09T10:25:03;7.82;;;2.15;;
31206;SDS011;17834;52.992;8.856;2022-11-09T10:27:39;5.25;;;1.42;;
31206;SDS011;17834;52.992;8.856;2022-11-09T10:30:07;3.40;;;1.08;;
31206;SDS011;17834;52.992;8.856;2022-11-09T10:32:36;6.28;;;1.40;;
31206;SDS011;17834;52.992;8.856;2022-11-09T10:37:38;6.35;;;1.80;;
31206;SDS011;17834;52.992;8.856;2022-11-09T10:42:37;4.68;;;1.52;;
31206;SDS011;17834;52.992;8.856;2022-11-09T10:45:24;5.95;;;2.60;;
31206;SDS011;17834;52.992;8.856;2022-11-09T10:47:51;7.90;;;1.60;;
31206;SDS011;17834;52.992;8.856;2022-11-09T10:58:33;7.55;;;1.60;;
31206;SDS011;17834;52.992;8.856;2022-11-09T11:01:01;3.63;;;1.60;;
31206;SDS011;17834;52.992;8.856;2022-11-09T11:03:28;5.38;;;1.67;;
31206;SDS011;17834;52.992;8.856;2022-11-09T11:05:58;3.65;;;1.42;;
31206;SDS011;17834;52.992;8.856;2022-11-09T11:08:26;5.43;;;1.25;;
31206;SDS011;17834;52.992;8.856;2022-11-09T11:11:04;6.25;;;1.60;;
31206;SDS011;17834;52.992;8.856;2022-11-09T11:13:30;10.60;;;1.48;;
31206;SDS011;17834;52.992;8.856;2022-11-09T11:15:57;5.80;;;1.48;;
31206;SDS011;17834;52.992;8.856;2022-11-09T11:18:23;5.28;;;1.52;;
31206;SDS011;17834;52.992;8.856;2022-11-09T11:21:11;7.85;;;1.50;;
31206;SDS011;17834;52.992;8.856;2022-11-09T11:23:38;5.68;;;1.20;;
31206;SDS011;17834;52.992;8.856;2022-11-09T11:26:23;3.25;;;1.15;;
31206;SDS011;17834;52.992;8.856;2022-11-09T11:28:56;8.57;;;1.77;;
31206;SDS011;17834;52.992;8.856;2022-11-09T11:31:24;3.90;;;1.40;;
31206;SDS011;17834;52.992;8.856;2022-11-09T11:33:50;8.38;;;1.40;;
31206;SDS011;17834;52.992;8.856;2022-11-09T11:36:22;5.65;;;1.42;;
31206;SDS011;17834;52.992;8.856;2022-11-09T11:38:54;4.15;;;1.38;;
31206;SDS011;17834;52.992;8.856;2022-11-09T11:46:44;6.25;;;1.27;;
31206;SDS011;17834;52.992;8.856;2022-11-09T11:51:39;6.82;;;1.77;;
31206;SDS011;17834;52.992;8.856;2022-11-09T11:59:37;6.75;;;1.40;;
31206;SDS011;17834;52.992;8.856;2022-11-09T12:07:22;4.78;;;1.10;;
31206;SDS011;17834;52.992;8.856;2022-11-09T12:15:21;6.10;;;1.08;;
31206;SDS011;17834;52.992;8.856;2022-11-09T12:18:07;2.97;;;1.08;;
31206;SDS011;17834;52.992;8.856;2022-11-09T12:23:48;3.85;;;1.10;;
31206;SDS011;17834;52.992;8.856;2022-11-09T12:31:10;6.95;;;1.30;;
31206;SDS011;17834;52.992;8.856;2022-11-09T12:33:49;5.00;;;1.23;;
31206;SDS011;17834;52.992;8.856;2022-11-09T12:39:11;6.05;;;1.05;;
31206;SDS011;17834;52.992;8.856;2022-11-09T12:41:37;5.15;;;1.52;;
31206;SDS011;17834;52.992;8.856;2022-11-09T12:44:12;6.70;;;1.20;;
31206;SDS011;17834;52.992;8.856;2022-11-09T12:46:50;4.57;;;1.10;;
31206;SDS011;17834;52.992;8.856;2022-11-09T12:49:30;5.28;;;1.02;;
31206;SDS011;17834;52.992;8.856;2022-11-09T12:51:57;3.90;;;1.13;;
31206;SDS011;17834;52.992;8.856;2022-11-09T12:54:23;4.20;;;0.93;;
31206;SDS011;17834;52.992;8.856;2022-11-09T12:56:51;3.08;;;0.60;;
31206;SDS011;17834;52.992;8.856;2022-11-09T13:00:04;5.38;;;0.98;;
31206;SDS011;17834;52.992;8.856;2022-11-09T13:04:31;4.53;;;1.02;;
31206;SDS011;17834;52.992;8.856;2022-11-09T13:09:29;3.03;;;1.02;;
31206;SDS011;17834;52.992;8.856;2022-11-09T13:11:55;8.73;;;1.00;;
31206;SDS011;17834;52.992;8.856;2022-11-09T13:16:47;3.35;;;0.90;;
31206;SDS011;17834;52.992;8.856;2022-11-09T13:22:02;2.92;;;0.82;;
31206;SDS011;17834;52.992;8.856;2022-11-09T13:27:33;5.38;;;0.80;;
31206;SDS011;17834;52.992;8.856;2022-11-09T13:30:00;3.63;;;1.05;;
31206;SDS011;17834;52.992;8.856;2022-11-09T13:32:30;4.05;;;0.98;;
31206;SDS011;17834;52.992;8.856;2022-11-09T13:34:59;3.80;;;0.70;;
31206;SDS011;17834;52.992;8.856;2022-11-09T13:45:34;2.70;;;1.00;;
31206;SDS011;17834;52.992;8.856;2022-11-09T13:48:00;2.20;;;0.60;;
31206;SDS011;17834;52.992;8.856;2022-11-09T13:50:28;3.90;;;0.77;;
31206;SDS011;17834;52.992;8.856;2022-11-09T13:52:55;2.92;;;1.05;;
31206;SDS011;17834;52.992;8.856;2022-11-09T13:57:48;5.05;;;0.80;;
31206;SDS011;17834;52.992;8.856;2022-11-09T14:00:16;4.28;;;0.88;;
31206;SDS011;17834;52.992;8.856;2022-11-09T14:02:50;8.85;;;0.77;;
31206;SDS011;17834;52.992;8.856;2022-11-09T14:07:49;6.82;;;1.00;;
31206;SDS011;17834;52.992;8.856;2022-11-09T14:10:21;5.03;;;1.00;;
31206;SDS011;17834;52.992;8.856;2022-11-09T14:12:58;4.40;;;0.88;;
31206;SDS011;17834;52.992;8.856;2022-11-09T14:18:17;3.55;;;1.20;;
31206;SDS011;17834;52.992;8.856;2022-11-09T14:23:27;1.67;;;0.65;;
31206;SDS011;17834;52.992;8.856;2022-11-09T14:25:54;5.88;;;0.90;;
31206;SDS011;17834;52.992;8.856;2022-11-09T14:28:27;4.35;;;1.00;;
31206;SDS011;17834;52.992;8.856;2022-11-09T14:30:53;3.50;;;0.60;;
31206;SDS011;17834;52.992;8.856;2022-11-09T14:33:24;4.88;;;0.90;;
31206;SDS011;17834;52.992;8.856;2022-11-09T14:35:50;5.53;;;1.00;;
31206;SDS011;17834;52.992;8.856;2022-11-09T14:40:49;4.93;;;0.98;;
31206;SDS011;17834;52.992;8.856;2022-11-09T14:45:55;4.88;;;1.40;;
31206;SDS011;17834;52.992;8.856;2022-11-09T14:48:22;4.63;;;1.20;;
31206;SDS011;17834;52.992;8.856;2022-11-09T14:50:50;7.55;;;1.00;;
31206;SDS011;17834;52.992;8.856;2022-11-09T14:53:20;3.38;;;0.57;;
31206;SDS011;17834;52.992;8.856;2022-11-09T14:55:49;4.68;;;1.08;;
31206;SDS011;17834;52.992;8.856;2022-11-09T14:58:15;4.50;;;1.00;;
31206;SDS011;17834;52.992;8.856;2022-11-09T15:00:42;3.22;;;1.38;;
31206;SDS011;17834;52.992;8.856;2022-11-09T15:03:21;2.00;;;0.80;;
31206;SDS011;17834;52.992;8.856;2022-11-09T15:05:47;6.45;;;1.05;;
31206;SDS011;17834;52.992;8.856;2022-11-09T15:08:15;3.95;;;0.70;;
31206;SDS011;17834;52.992;8.856;2022-11-09T15:10:47;4.40;;;1.15;;
31206;SDS011;17834;52.992;8.856;2022-11-09T15:13:13;4.35;;;0.90;;
31206;SDS011;17834;52.992;8.856;2022-11-09T15:15:39;5.50;;;1.63;;
31206;SDS011;17834;52.992;8.856;2022-11-09T15:18:13;3.85;;;1.65;;
31206;SDS011;17834;52.992;8.856;2022-11-09T15:20:39;3.10;;;0.82;;
31206;SDS011;17834;52.992;8.856;2022-11-09T15:23:35;4.10;;;0.80;;
31206;SDS011;17834;52.992;8.856;2022-11-09T15:25:52;2.53;;;1.17;;
31206;SDS011;17834;52.992;8.856;2022-11-09T15:28:20;6.55;;;1.10;;
31206;SDS011;17834;52.992;8.856;2022-11-09T15:33:23;2.67;;;0.55;;
31206;SDS011;17834;52.992;8.856;2022-11-09T15:35:54;4.78;;;1.40;;
31206;SDS011;17834;52.992;8.856;2022-11-09T15:41:15;5.75;;;1.20;;
31206;SDS011;17834;52.992;8.856;2022-11-09T15:43:41;3.10;;;0.90;;
31206;SDS011;17834;52.992;8.856;2022-11-09T15:46:18;3.47;;;1.15;;
31206;SDS011;17834;52.992;8.856;2022-11-09T15:48:45;7.07;;;1.10;;
31206;SDS011;17834;52.992;8.856;2022-11-09T15:51:11;5.30;;;1.33;;
31206;SDS011;17834;52.992;8.856;2022-11-09T15:53:38;3.78;;;1.05;;
31206;SDS011;17834;52.992;8.856;2022-11-09T15:56:04;2.35;;;0.90;;
31206;SDS011;17834;52.992;8.856;2022-11-09T15:58:30;3.83;;;0.93;;
31206;SDS011;17834;52.992;8.856;2022-11-09T16:00:56;5.28;;;0.90;;
31206;SDS011;17834;52.992;8.856;2022-11-09T16:03:22;4.28;;;0.90;;
31206;SDS011;17834;52.992;8.856;2022-11-09T16:05:48;3.25;;;0.90;;
31206;SDS011;17834;52.992;8.856;2022-11-09T16:08:15;5.05;;;1.17;;
31206;SDS011;17834;52.992;8.856;2022-11-09T16:10:41;5.38;;;1.35;;
31206;SDS011;17834;52.992;8.856;2022-11-09T16:13:08;4.60;;;1.60;;
31206;SDS011;17834;52.992;8.856;2022-11-09T16:15:35;5.10;;;1.02;;
31206;SDS011;17834;52.992;8.856;2022-11-09T16:18:01;2.10;;;0.85;;
31206;SDS011;17834;52.992;8.856;2022-11-09T16:20:27;7.57;;;1.27;;
31206;SDS011;17834;52.992;8.856;2022-11-09T16:22:53;5.43;;;1.33;;
31206;SDS011;17834;52.992;8.856;2022-11-09T16:25:19;6.85;;;1.08;;
31206;SDS011;17834;52.992;8.856;2022-11-09T16:27:44;5.63;;;1.40;;
31206;SDS011;17834;52.992;8.856;2022-11-09T16:30:10;4.00;;;1.52;;
31206;SDS011;17834;52.992;8.856;2022-11-09T16:32:37;8.60;;;2.13;;
31206;SDS011;17834;52.992;8.856;2022-11-09T16:35:03;6.68;;;1.88;;
31206;SDS011;17834;52.992;8.856;2022-11-09T16:37:30;4.68;;;1.88;;
31206;SDS011;17834;52.992;8.856;2022-11-09T16:39:59;5.53;;;1.65;;